Terminal Aerodrome Forecast
Issued by NWS

Home | Current Version | Previous Version | Graphics & Text | Print | Product List | Glossary On
Versions: 1 2 3 4 5 6 7 8 9 10 11 12 13 14 15 16 17 18 19 20
000
FTUS43 KPAH 191100 RRA
TAFCGI
TAF
KCGI 191140Z 1912/2012 VRB03KT 4SM BR SCT045
      TEMPO 1912/1913 00000KT 2SM BR
     FM191400 08005KT P6SM SCT045
     FM200000 17003KT P6SM SCT050=

USA.gov is the U.S. government's official web portal to all federal, state and local government web resources and services.